Time;durP1;ratioP1;P1;durP2;ratioP2;P2;SDS_P1;SDS_P2;PMS_P1;PMS_P2;Temp;Humidity;BMP_temperature;BMP_pressure;BME280_temperature;BME280_humidity;BME280_pressure;Samples;Min_cycle;Max_cycle;Signal;HPM_P1;HPM_P2
2022/06/15 00:02:01;;;;;;;;;;;16.00;46.50;;;;;;5002350;28;19914;-91
2022/06/15 00:04:28;;;;;;;;;;;16.00;46.20;;;;;;5008039;28;19917;-89
2022/06/15 00:06:53;;;;;;;;;;;16.00;46.00;;;;;;5000593;28;19926;-88
2022/06/15 00:09:19;;;;;;;;;;;15.90;45.90;;;;;;5009389;28;19918;-88
2022/06/15 00:11:44;;;;;;;;;;;15.90;46.00;;;;;;4999364;28;19960;-89
2022/06/15 00:14:12;;;;;;;;;;;15.90;46.10;;;;;;4998335;28;19918;-89
2022/06/15 00:16:38;;;;;;;;;;;15.80;46.40;;;;;;4997665;28;19917;-90
2022/06/15 00:19:04;;;;;;;;;;;15.80;46.30;;;;;;4999191;28;20012;-90
2022/06/15 00:21:30;;;;;;;;;;;15.80;46.30;;;;;;4999023;28;19921;-90
2022/06/15 00:23:57;;;;;;;;;;;15.80;46.20;;;;;;4994286;28;20009;-92
2022/06/15 00:26:23;;;;;;;;;;;15.80;46.20;;;;;;4978430;28;19942;-88
2022/06/15 00:28:48;;;;;;;;;;;15.70;46.20;;;;;;4998465;28;19921;-87
2022/06/15 00:31:14;;;;;;;;;;;15.70;46.40;;;;;;4997365;28;20329;-88
2022/06/15 00:33:40;;;;;;;;;;;15.60;46.40;;;;;;4998231;28;19922;-89
2022/06/15 00:36:07;;;;;;;;;;;15.60;46.70;;;;;;4998687;28;19921;-90
2022/06/15 00:38:34;;;;;;;;;;;15.60;47.30;;;;;;4997458;28;19969;-90
2022/06/15 00:41:00;;;;;;;;;;;15.60;47.60;;;;;;4998588;28;19925;-90
2022/06/15 00:43:35;;;;;;;;;;;15.50;47.70;;;;;;4999477;28;19917;-90
2022/06/15 00:46:20;;;;;;;;;;;15.50;47.50;;;;;;4998139;28;19914;-90
2022/06/15 00:48:46;;;;;;;;;;;15.50;48.20;;;;;;5005139;28;20270;-91
2022/06/15 00:51:13;;;;;;;;;;;15.50;48.00;;;;;;4996968;28;19937;-90
2022/06/15 00:53:39;;;;;;;;;;;15.40;47.80;;;;;;4997738;28;19922;-89
2022/06/15 00:56:05;;;;;;;;;;;15.40;47.60;;;;;;4996952;28;19918;-89
2022/06/15 00:58:31;;;;;;;;;;;15.40;47.50;;;;;;5001128;28;19926;-89
2022/06/15 01:00:57;;;;;;;;;;;15.40;47.50;;;;;;5017141;28;19914;-90
2022/06/15 01:03:22;;;;;;;;;;;15.30;47.50;;;;;;5010503;28;20146;-89
2022/06/15 01:05:53;;;;;;;;;;;15.30;47.50;;;;;;4993754;28;20004;-89
2022/06/15 01:08:21;;;;;;;;;;;15.20;47.60;;;;;;4977815;28;19984;-90
2022/06/15 01:10:53;;;;;;;;;;;15.20;48.30;;;;;;4998946;28;19964;-89
2022/06/15 01:13:26;;;;;;;;;;;15.20;48.80;;;;;;4996845;28;20020;-89
2022/06/15 01:15:58;;;;;;;;;;;15.20;49.00;;;;;;4996974;28;19924;-89
2022/06/15 01:18:23;;;;;;;;;;;15.10;49.30;;;;;;4998746;28;19933;-89
2022/06/15 01:21:02;;;;;;;;;;;15.10;49.50;;;;;;5016214;28;19913;-88
2022/06/15 01:23:40;;;;;;;;;;;15.00;49.70;;;;;;5018973;28;19913;-89
2022/06/15 01:26:35;;;;;;;;;;;15.00;49.20;;;;;;4976448;28;20008;-89
2022/06/15 01:29:11;;;;;;;;;;;14.90;48.90;;;;;;4950628;28;20009;-89
2022/06/15 01:31:40;;;;;;;;;;;14.80;48.80;;;;;;4985587;28;19918;-89
2022/06/15 01:34:05;;;;;;;;;;;14.80;48.70;;;;;;4994483;28;19918;-89
2022/06/15 01:36:50;;;;;;;;;;;14.80;48.60;;;;;;4978017;28;20290;-89
2022/06/15 01:39:18;;;;;;;;;;;14.70;48.60;;;;;;4997515;28;19922;-89
2022/06/15 01:41:45;;;;;;;;;;;14.70;48.70;;;;;;4976580;28;19918;-89
2022/06/15 01:44:23;;;;;;;;;;;14.70;48.80;;;;;;5001767;28;19917;-89
2022/06/15 01:46:49;;;;;;;;;;;14.70;48.80;;;;;;5024423;28;19933;-89
2022/06/15 01:49:26;;;;;;;;;;;14.60;48.70;;;;;;5023442;28;19917;-91
2022/06/15 01:51:52;;;;;;;;;;;14.60;48.70;;;;;;5019164;28;19914;-89
2022/06/15 01:54:20;;;;;;;;;;;14.60;48.70;;;;;;5008911;28;19992;-89
2022/06/15 01:56:47;;;;;;;;;;;14.50;48.60;;;;;;4995135;28;19993;-90
2022/06/15 01:59:31;;;;;;;;;;;14.50;48.70;;;;;;5003971;28;19966;-89
2022/06/15 02:02:00;;;;;;;;;;;14.50;48.70;;;;;;5015676;28;20255;-89
2022/06/15 02:04:35;;;;;;;;;;;14.40;48.70;;;;;;5005775;28;19918;-89
2022/06/15 02:07:05;;;;;;;;;;;14.40;48.70;;;;;;4975393;28;20383;-89
2022/06/15 02:09:39;;;;;;;;;;;14.40;48.80;;;;;;4996814;28;19918;-90
2022/06/15 02:12:06;;;;;;;;;;;14.40;48.80;;;;;;5015182;28;19919;-90
2022/06/15 02:14:35;;;;;;;;;;;14.40;48.80;;;;;;5003318;28;19934;-90
2022/06/15 02:17:06;;;;;;;;;;;14.30;48.80;;;;;;4996687;28;19918;-90
2022/06/15 02:19:35;;;;;;;;;;;14.30;48.70;;;;;;4999588;28;19922;-90
2022/06/15 02:22:03;;;;;;;;;;;14.30;48.70;;;;;;4991038;28;19919;-90
2022/06/15 02:24:29;;;;;;;;;;;14.30;48.70;;;;;;4976023;28;20243;-90
2022/06/15 02:26:55;;;;;;;;;;;14.30;48.70;;;;;;4975394;28;19914;-90
2022/06/15 02:29:22;;;;;;;;;;;14.20;48.70;;;;;;4985672;28;20377;-90
2022/06/15 02:31:47;;;;;;;;;;;14.20;48.90;;;;;;4996792;28;19920;-90
2022/06/15 02:34:13;;;;;;;;;;;14.20;49.50;;;;;;5001758;28;19918;-90
2022/06/15 02:36:39;;;;;;;;;;;14.20;49.50;;;;;;4994788;28;19921;-90
2022/06/15 02:39:05;;;;;;;;;;;14.20;49.40;;;;;;4991156;28;19924;-90
2022/06/15 02:41:31;;;;;;;;;;;14.20;49.50;;;;;;4988926;28;19949;-90
2022/06/15 02:43:58;;;;;;;;;;;14.20;49.30;;;;;;4995509;28;19918;-90
2022/06/15 02:46:24;;;;;;;;;;;14.20;49.40;;;;;;4996186;28;19917;-90
2022/06/15 02:48:50;;;;;;;;;;;14.10;49.40;;;;;;4997415;28;19925;-89
2022/06/15 02:51:15;;;;;;;;;;;14.10;49.30;;;;;;4998218;28;19914;-91
2022/06/15 02:53:41;;;;;;;;;;;14.00;49.30;;;;;;4997729;28;19969;-89
2022/06/15 02:56:08;;;;;;;;;;;14.10;49.40;;;;;;4996781;28;19914;-90
2022/06/15 02:58:36;;;;;;;;;;;14.00;49.50;;;;;;5001028;28;20401;-90
2022/06/15 03:01:02;;;;;;;;;;;14.00;49.50;;;;;;5011524;28;19914;-90
2022/06/15 03:03:28;;;;;;;;;;;14.00;49.50;;;;;;4998904;28;19977;-89
2022/06/15 03:05:54;;;;;;;;;;;14.00;49.50;;;;;;5017129;28;20317;-90
2022/06/15 03:08:20;;;;;;;;;;;13.90;49.60;;;;;;5016016;28;19922;-89
2022/06/15 03:10:45;;;;;;;;;;;13.90;49.60;;;;;;4997057;28;19917;-90
2022/06/15 03:13:11;;;;;;;;;;;13.90;49.70;;;;;;4997193;28;19949;-89
2022/06/15 03:15:37;;;;;;;;;;;13.90;49.70;;;;;;4998727;28;20380;-90
2022/06/15 03:18:02;;;;;;;;;;;14.00;49.80;;;;;;4997682;28;19922;-89
2022/06/15 03:20:28;;;;;;;;;;;14.00;49.80;;;;;;5015951;28;19920;-90
2022/06/15 03:22:53;;;;;;;;;;;14.00;49.90;;;;;;5016550;28;19913;-90
2022/06/15 03:25:19;;;;;;;;;;;14.10;50.20;;;;;;4999197;28;19914;-89
2022/06/15 03:27:44;;;;;;;;;;;14.10;50.20;;;;;;4997318;28;20294;-89
2022/06/15 03:30:11;;;;;;;;;;;14.20;50.40;;;;;;5012320;28;19924;-90
2022/06/15 03:32:36;;;;;;;;;;;14.30;50.60;;;;;;5017035;28;19921;-90
2022/06/15 03:35:02;;;;;;;;;;;14.40;50.90;;;;;;5016626;28;20207;-89
2022/06/15 03:37:28;;;;;;;;;;;14.60;51.20;;;;;;5019041;28;19924;-89
2022/06/15 03:39:54;;;;;;;;;;;14.80;51.40;;;;;;5002293;28;19918;-89
2022/06/15 03:42:22;;;;;;;;;;;15.00;51.70;;;;;;4996194;28;19917;-89
2022/06/15 03:44:47;;;;;;;;;;;15.20;52.00;;;;;;4983060;28;19925;-89
2022/06/15 03:47:16;;;;;;;;;;;15.50;52.30;;;;;;4978004;28;20282;-89
2022/06/15 03:49:47;;;;;;;;;;;15.70;52.40;;;;;;4991528;28;19918;-89
2022/06/15 03:52:12;;;;;;;;;;;16.00;52.60;;;;;;4996652;28;19914;-89
2022/06/15 03:54:38;;;;;;;;;;;16.30;52.70;;;;;;4998160;28;19922;-90
2022/06/15 03:57:04;;;;;;;;;;;16.70;52.70;;;;;;4996488;28;20370;-90
2022/06/15 03:59:30;;;;;;;;;;;17.00;52.60;;;;;;5006825;28;20023;-90
2022/06/15 04:01:55;;;;;;;;;;;17.30;52.50;;;;;;5015608;28;19910;-90
2022/06/15 04:04:21;;;;;;;;;;;17.70;52.40;;;;;;5007377;28;20358;-92
2022/06/15 04:06:47;;;;;;;;;;;18.00;52.30;;;;;;4982118;28;19924;-92
2022/06/15 04:09:12;;;;;;;;;;;18.40;52.10;;;;;;4998539;28;19996;-93
2022/06/15 04:14:22;;;;;;;;;;;19.10;51.70;;;;;;5000338;28;19925;-93
2022/06/15 04:16:53;;;;;;;;;;;19.60;51.50;;;;;;4998546;28;19921;-92
2022/06/15 04:19:19;;;;;;;;;;;19.90;51.20;;;;;;5007983;28;19921;-93
2022/06/15 04:21:45;;;;;;;;;;;20.30;50.90;;;;;;5018404;28;19983;-93
2022/06/15 04:24:11;;;;;;;;;;;20.70;50.60;;;;;;5013559;28;19917;-93
2022/06/15 04:26:38;;;;;;;;;;;21.10;50.20;;;;;;4999948;28;19918;-94
2022/06/15 04:29:03;;;;;;;;;;;21.50;49.70;;;;;;4998599;28;19918;-94
2022/06/15 04:31:29;;;;;;;;;;;21.90;49.40;;;;;;4997670;28;19937;-93
2022/06/15 04:33:54;;;;;;;;;;;22.30;49.10;;;;;;4997323;28;19918;-93
2022/06/15 04:36:21;;;;;;;;;;;22.70;48.70;;;;;;4998342;28;19968;-92
2022/06/15 04:38:47;;;;;;;;;;;23.20;48.10;;;;;;4999379;28;19961;-92
2022/06/15 04:41:12;;;;;;;;;;;23.60;47.70;;;;;;4998546;28;19914;-93
2022/06/15 04:43:38;;;;;;;;;;;24.00;47.00;;;;;;4996891;28;19968;-93
2022/06/15 04:46:03;;;;;;;;;;;24.50;46.00;;;;;;4997663;28;19917;-93
2022/06/15 04:48:36;;;;;;;;;;;24.90;45.00;;;;;;4999392;28;19922;-92
2022/06/15 04:51:09;;;;;;;;;;;25.30;43.90;;;;;;4998939;28;19973;-91
2022/06/15 04:53:35;;;;;;;;;;;25.80;43.20;;;;;;4999525;28;19924;-91
2022/06/15 04:56:02;;;;;;;;;;;26.20;42.90;;;;;;5009937;28;20234;-91
2022/06/15 04:58:28;;;;;;;;;;;26.70;42.00;;;;;;4997894;28;19972;-92
2022/06/15 05:00:53;;;;;;;;;;;27.10;41.10;;;;;;5017059;28;19918;-92
2022/06/15 05:03:20;;;;;;;;;;;27.40;40.00;;;;;;5014807;28;19918;-91
2022/06/15 05:05:56;;;;;;;;;;;27.80;39.30;;;;;;4995635;28;19997;-92
2022/06/15 05:08:29;;;;;;;;;;;28.10;38.80;;;;;;4995023;28;19914;-91
2022/06/15 05:10:54;;;;;;;;;;;28.50;38.20;;;;;;4996047;28;20377;-91
2022/06/15 05:13:29;;;;;;;;;;;28.80;37.70;;;;;;4995680;28;19921;-91
2022/06/15 05:15:55;;;;;;;;;;;29.20;37.20;;;;;;4995937;28;19924;-92
2022/06/15 05:18:21;;;;;;;;;;;29.60;36.80;;;;;;4997252;28;20001;-92
2022/06/15 05:20:47;;;;;;;;;;;30.00;36.00;;;;;;4997945;28;19991;-93
2022/06/15 05:23:14;;;;;;;;;;;30.40;35.50;;;;;;4998026;28;19914;-92
2022/06/15 05:25:39;;;;;;;;;;;30.80;34.90;;;;;;4997202;28;20390;-93
2022/06/15 05:28:08;;;;;;;;;;;31.20;34.50;;;;;;4996401;28;19918;-92
2022/06/15 05:30:33;;;;;;;;;;;31.60;33.70;;;;;;4996853;28;20037;-92
2022/06/15 05:32:59;;;;;;;;;;;31.90;32.90;;;;;;4996587;28;19949;-92
2022/06/15 05:35:24;;;;;;;;;;;32.20;31.80;;;;;;4993426;28;19958;-91
2022/06/15 05:37:50;;;;;;;;;;;32.30;31.30;;;;;;4978051;28;19979;-93
2022/06/15 05:40:15;;;;;;;;;;;32.40;30.60;;;;;;5009759;28;19921;-92
2022/06/15 05:42:41;;;;;;;;;;;32.50;30.60;;;;;;5015913;28;19917;-91
2022/06/15 05:45:06;;;;;;;;;;;32.70;29.50;;;;;;4999088;28;19914;-93
2022/06/15 05:47:32;;;;;;;;;;;33.00;29.20;;;;;;4997804;28;19914;-93
2022/06/15 05:49:58;;;;;;;;;;;33.30;28.90;;;;;;4997068;28;19914;-92
2022/06/15 05:52:24;;;;;;;;;;;33.60;28.90;;;;;;4997240;28;19921;-93
2022/06/15 05:54:49;;;;;;;;;;;33.90;28.60;;;;;;4998235;28;19913;-92
2022/06/15 05:57:19;;;;;;;;;;;34.30;28.10;;;;;;4995069;28;19926;-92
2022/06/15 05:59:46;;;;;;;;;;;34.70;27.20;;;;;;4996988;28;19917;-92
2022/06/15 06:02:11;;;;;;;;;;;35.00;26.50;;;;;;4995564;28;19924;-90
2022/06/15 06:04:37;;;;;;;;;;;35.20;26.40;;;;;;5001430;28;19913;-90
2022/06/15 06:07:03;;;;;;;;;;;35.40;25.30;;;;;;4996177;28;19922;-91
2022/06/15 06:09:28;;;;;;;;;;;35.50;25.00;;;;;;5005158;28;19920;-90
2022/06/15 06:11:57;;;;;;;;;;;35.60;25.00;;;;;;5011435;28;19924;-90
2022/06/15 06:14:22;;;;;;;;;;;35.80;24.70;;;;;;4999749;28;20016;-91
2022/06/15 06:16:48;;;;;;;;;;;35.80;23.70;;;;;;4979659;28;19922;-92
2022/06/15 06:19:14;;;;;;;;;;;35.80;23.40;;;;;;4996563;28;19922;-90
2022/06/15 06:21:39;;;;;;;;;;;35.90;23.00;;;;;;4994470;28;19914;-91
2022/06/15 06:24:05;;;;;;;;;;;36.00;23.10;;;;;;4997139;28;19918;-91
2022/06/15 06:26:34;;;;;;;;;;;36.10;23.10;;;;;;4999572;28;20482;-91
2022/06/15 06:28:59;;;;;;;;;;;36.30;22.90;;;;;;4999198;28;20017;-91
2022/06/15 06:31:26;;;;;;;;;;;36.50;23.00;;;;;;5000538;28;19908;-91
2022/06/15 06:33:51;;;;;;;;;;;36.70;23.10;;;;;;5000691;28;19921;-93
2022/06/15 06:36:29;;;;;;;;;;;37.00;22.90;;;;;;5012622;28;20234;-92
2022/06/15 06:38:55;;;;;;;;;;;37.20;22.30;;;;;;5009040;28;20373;-93
2022/06/15 06:41:22;;;;;;;;;;;37.30;21.90;;;;;;4997707;28;19949;-92
2022/06/15 06:43:48;;;;;;;;;;;37.40;21.80;;;;;;4996437;28;19925;-92
2022/06/15 06:46:15;;;;;;;;;;;37.40;21.40;;;;;;5009326;28;19937;-93
2022/06/15 06:48:41;;;;;;;;;;;37.30;21.40;;;;;;4988247;28;19925;-92
2022/06/15 06:51:06;;;;;;;;;;;37.30;21.40;;;;;;5003435;28;19910;-92
2022/06/15 06:53:32;;;;;;;;;;;37.30;21.20;;;;;;4991315;28;19924;-92
2022/06/15 06:56:05;;;;;;;;;;;37.00;21.10;;;;;;4999250;28;20012;-92
2022/06/15 06:58:31;;;;;;;;;;;36.80;21.20;;;;;;4990825;28;20337;-92
2022/06/15 07:00:57;;;;;;;;;;;36.70;21.80;;;;;;4999310;28;19910;-92
2022/06/15 07:03:26;;;;;;;;;;;36.80;21.80;;;;;;5000225;28;19924;-93
2022/06/15 07:06:02;;;;;;;;;;;37.00;21.80;;;;;;4991928;28;19917;-92
2022/06/15 07:08:27;;;;;;;;;;;37.20;21.70;;;;;;4989495;28;19945;-93
2022/06/15 07:10:53;;;;;;;;;;;37.50;21.40;;;;;;4999361;28;19922;-93
2022/06/15 07:13:19;;;;;;;;;;;37.80;21.60;;;;;;4986763;28;19914;-93
2022/06/15 07:15:44;;;;;;;;;;;38.10;21.60;;;;;;4999490;28;19976;-93
2022/06/15 07:18:10;;;;;;;;;;;38.50;21.30;;;;;;4998993;28;19926;-93
2022/06/15 07:20:36;;;;;;;;;;;38.70;20.90;;;;;;4999449;28;20000;-93
2022/06/15 07:23:01;;;;;;;;;;;39.00;20.90;;;;;;4992642;28;20316;-93
2022/06/15 07:25:27;;;;;;;;;;;39.50;20.60;;;;;;4997387;28;19915;-93
2022/06/15 07:27:52;;;;;;;;;;;39.90;20.30;;;;;;4999253;28;20370;-94
2022/06/15 07:30:20;;;;;;;;;;;40.20;20.10;;;;;;4988652;28;19914;-94
2022/06/15 07:32:46;;;;;;;;;;;40.70;19.90;;;;;;4980637;28;20354;-94
2022/06/15 07:35:17;;;;;;;;;;;41.00;19.40;;;;;;5013592;28;19919;-95
2022/06/15 07:37:42;;;;;;;;;;;41.20;19.00;;;;;;5021419;28;20032;-95
2022/06/15 07:40:12;;;;;;;;;;;41.30;18.70;;;;;;5002339;28;20386;-94
2022/06/15 07:42:38;;;;;;;;;;;41.50;18.20;;;;;;4967457;28;19914;-94
2022/06/15 07:45:04;;;;;;;;;;;41.40;17.80;;;;;;4995928;28;19921;-94
2022/06/15 07:50:15;;;;;;;;;;;41.20;17.80;;;;;;4982136;28;20052;-94
2022/06/15 07:52:43;;;;;;;;;;;41.30;17.60;;;;;;4985191;28;19957;-94
2022/06/15 07:55:11;;;;;;;;;;;41.20;17.30;;;;;;5002610;28;19923;-94
2022/06/15 07:57:36;;;;;;;;;;;41.20;17.50;;;;;;4979917;28;19926;-95
2022/06/15 08:00:06;;;;;;;;;;;41.30;17.00;;;;;;4998396;28;19913;-95
2022/06/15 08:02:34;;;;;;;;;;;41.20;16.90;;;;;;5001413;28;20314;-94
2022/06/15 08:05:00;;;;;;;;;;;41.20;17.10;;;;;;5000662;28;19914;-93
2022/06/15 08:07:42;;;;;;;;;;;41.40;17.30;;;;;;5000552;28;19924;-94
2022/06/15 08:10:16;;;;;;;;;;;41.80;17.10;;;;;;5001026;28;19964;-94
2022/06/15 08:12:49;;;;;;;;;;;42.10;16.90;;;;;;5001212;28;19917;-94
2022/06/15 08:15:17;;;;;;;;;;;42.40;16.20;;;;;;5005466;28;19917;-94
2022/06/15 08:17:46;;;;;;;;;;;42.50;15.80;;;;;;5018471;28;19961;-94
2022/06/15 08:20:12;;;;;;;;;;;42.50;15.90;;;;;;5019311;28;19918;-94
2022/06/15 08:23:06;;;;;;;;;;;42.60;16.10;;;;;;5019241;28;19912;-93
2022/06/15 08:25:37;;;;;;;;;;;42.50;16.10;;;;;;4980663;28;19918;-94
2022/06/15 08:28:03;;;;;;;;;;;42.40;16.30;;;;;;4986659;28;19917;-92
2022/06/15 08:30:29;;;;;;;;;;;42.50;16.30;;;;;;4998451;28;19941;-92
2022/06/15 08:32:54;;;;;;;;;;;42.70;16.50;;;;;;4996574;28;19939;-91
2022/06/15 08:35:20;;;;;;;;;;;42.70;16.00;;;;;;4997524;28;19918;-92
2022/06/15 08:37:46;;;;;;;;;;;42.40;16.00;;;;;;4986939;28;20003;-90
2022/06/15 08:40:12;;;;;;;;;;;42.20;16.20;;;;;;4984103;28;19925;-92
2022/06/15 08:42:53;;;;;;;;;;;42.20;16.40;;;;;;4976735;28;19955;-92
2022/06/15 08:45:25;;;;;;;;;;;42.20;16.50;;;;;;4991931;28;19921;-92
2022/06/15 08:47:56;;;;;;;;;;;42.40;16.60;;;;;;4997610;28;20283;-95
2022/06/15 08:50:36;;;;;;;;;;;42.70;16.30;;;;;;5001068;28;19969;-96
2022/06/15 08:53:22;;;;;;;;;;;42.70;15.90;;;;;;4996799;28;20311;-93
2022/06/15 08:55:58;;;;;;;;;;;42.60;15.70;;;;;;5000058;28;19960;-91
2022/06/15 08:58:44;;;;;;;;;;;42.50;15.70;;;;;;4998439;28;20389;-94
2022/06/15 09:01:30;;;;;;;;;;;42.30;15.50;;;;;;5005490;28;19949;-94
2022/06/15 09:04:22;;;;;;;;;;;42.20;15.70;;;;;;4957002;29;19977;-95
2022/06/15 09:07:06;;;;;;;;;;;42.40;15.70;;;;;;4954023;28;19978;-94
2022/06/15 09:09:37;;;;;;;;;;;42.40;15.50;;;;;;4948836;29;19922;-94
2022/06/15 09:15:11;;;;;;;;;;;42.50;15.90;;;;;;4961141;28;19929;-94
2022/06/15 09:17:37;;;;;;;;;;;42.70;15.90;;;;;;4978043;28;19965;-95
2022/06/15 09:20:08;;;;;;;;;;;42.90;15.40;;;;;;4977048;28;19915;-95
2022/06/15 09:22:46;;;;;;;;;;;43.00;15.40;;;;;;4978352;28;19934;-94
2022/06/15 09:25:16;;;;;;;;;;;43.00;15.20;;;;;;4978883;28;19914;-95
2022/06/15 09:27:55;;;;;;;;;;;43.10;15.10;;;;;;4978337;28;19925;-95
2022/06/15 09:30:22;;;;;;;;;;;43.30;15.30;;;;;;4978139;28;19914;-95
2022/06/15 09:32:57;;;;;;;;;;;43.60;15.20;;;;;;4961704;28;19925;-94
2022/06/15 09:35:43;;;;;;;;;;;43.70;14.90;;;;;;4970465;28;19914;-94
2022/06/15 09:38:12;;;;;;;;;;;43.70;15.00;;;;;;4978319;28;19934;-93
2022/06/15 09:40:50;;;;;;;;;;;43.80;14.80;;;;;;4978068;28;19922;-92
2022/06/15 09:43:29;;;;;;;;;;;43.80;14.40;;;;;;4990924;28;19918;-93
2022/06/15 09:46:04;;;;;;;;;;;43.70;14.70;;;;;;5007287;28;19914;-94
2022/06/15 09:48:36;;;;;;;;;;;43.90;15.00;;;;;;5013941;28;19921;-92
2022/06/15 09:51:24;;;;;;;;;;;44.30;14.90;;;;;;4998614;28;20285;-93
2022/06/15 09:54:11;;;;;;;;;;;44.30;14.60;;;;;;4994642;28;19914;-94
2022/06/15 09:56:36;;;;;;;;;;;44.10;14.60;;;;;;4996858;28;19917;-93
2022/06/15 09:59:15;;;;;;;;;;;44.00;14.60;;;;;;4997734;28;19932;-93
2022/06/15 10:01:42;;;;;;;;;;;43.90;14.50;;;;;;5016534;28;19918;-94
2022/06/15 10:04:15;;;;;;;;;;;44.00;14.60;;;;;;5004111;28;19983;-93
2022/06/15 10:06:55;;;;;;;;;;;43.90;14.40;;;;;;5019534;28;19917;-92
2022/06/15 10:09:28;;;;;;;;;;;43.80;14.60;;;;;;5001677;28;19918;-93
2022/06/15 10:11:56;;;;;;;;;;;43.50;14.50;;;;;;5018668;28;19939;-95
2022/06/15 10:14:29;;;;;;;;;;;43.40;14.80;;;;;;5010008;28;19972;-93
2022/06/15 10:17:03;;;;;;;;;;;43.50;14.60;;;;;;5002478;28;19918;-94
2022/06/15 10:19:36;;;;;;;;;;;43.50;14.70;;;;;;4981171;28;19929;-94
2022/06/15 10:22:08;;;;;;;;;;;43.90;14.60;;;;;;4998731;28;19918;-94
2022/06/15 10:24:40;;;;;;;;;;;44.00;14.40;;;;;;5001155;28;19918;-95
2022/06/15 10:27:21;;;;;;;;;;;44.20;14.50;;;;;;5000282;28;20032;-95
2022/06/15 10:30:14;;;;;;;;;;;44.20;14.40;;;;;;5001102;28;19921;-95
2022/06/15 10:33:01;;;;;;;;;;;44.20;14.50;;;;;;5002005;28;19933;-96
2022/06/15 10:35:29;;;;;;;;;;;44.20;14.20;;;;;;5001248;28;19917;-94
2022/06/15 10:37:56;;;;;;;;;;;44.30;14.40;;;;;;5000149;28;19953;-94
2022/06/15 10:40:24;;;;;;;;;;;44.30;14.10;;;;;;5001352;28;20060;-94
2022/06/15 10:42:53;;;;;;;;;;;44.20;14.20;;;;;;5000444;28;20053;-93
2022/06/15 10:48:44;;;;;;;;;;;44.10;13.90;;;;;;4978333;28;19924;-92
2022/06/15 10:51:12;;;;;;;;;;;44.00;13.90;;;;;;5000175;28;20005;-92
2022/06/15 10:53:37;;;;;;;;;;;44.10;14.00;;;;;;4994406;28;19961;-92
2022/06/15 11:04:32;;;;;;;;;;;44.60;13.70;;;;;;5000273;28;20005;-91
2022/06/15 11:07:09;;;;;;;;;;;44.70;13.60;;;;;;4998679;28;19972;-91
2022/06/15 11:09:38;;;;;;;;;;;44.60;13.90;;;;;;4998104;28;19937;-91
2022/06/15 11:12:22;;;;;;;;;;;44.90;13.70;;;;;;5016360;28;19922;-93
2022/06/15 11:14:50;;;;;;;;;;;44.80;13.40;;;;;;5013844;28;19914;-91
2022/06/15 11:20:00;;;;;;;;;;;44.50;13.40;;;;;;4998283;28;20009;-90
2022/06/15 11:22:27;;;;;;;;;;;44.40;13.60;;;;;;4997535;28;19937;-92
2022/06/15 11:24:59;;;;;;;;;;;44.30;13.70;;;;;;4996126;28;19917;-91
2022/06/15 11:27:28;;;;;;;;;;;44.50;13.50;;;;;;4997179;28;19993;-92
2022/06/15 11:30:21;;;;;;;;;;;44.40;13.60;;;;;;4997686;28;19913;-92
2022/06/15 11:33:01;;;;;;;;;;;44.60;13.70;;;;;;4985740;28;19926;-92
2022/06/15 11:35:29;;;;;;;;;;;44.80;13.40;;;;;;5000313;28;20004;-91
2022/06/15 11:38:10;;;;;;;;;;;44.70;13.30;;;;;;5017171;28;19953;-92
2022/06/15 11:40:39;;;;;;;;;;;44.60;13.30;;;;;;5018402;28;19930;-93
2022/06/15 11:43:10;;;;;;;;;;;44.70;13.50;;;;;;5019417;28;19985;-92
2022/06/15 11:45:49;;;;;;;;;;;45.00;13.50;;;;;;5014214;28;19983;-92
2022/06/15 11:48:39;;;;;;;;;;;45.40;13.50;;;;;;4998191;28;20024;-91
2022/06/15 11:57:11;;;;;;;;;;;45.90;13.10;;;;;;4998885;28;19940;-93
2022/06/15 11:59:40;;;;;;;;;;;46.10;13.10;;;;;;4999916;28;19917;-93
2022/06/15 12:02:14;;;;;;;;;;;46.20;12.80;;;;;;5001547;28;19922;-93
2022/06/15 12:04:50;;;;;;;;;;;45.90;13.00;;;;;;4997392;28;19937;-93
2022/06/15 12:07:28;;;;;;;;;;;45.80;13.10;;;;;;4991767;28;20461;-92
2022/06/15 12:10:20;;;;;;;;;;;45.90;13.30;;;;;;4991183;28;19922;-95
2022/06/15 12:12:53;;;;;;;;;;;46.20;13.50;;;;;;4986022;28;19953;-93
2022/06/15 12:15:19;;;;;;;;;;;46.50;13.40;;;;;;4993712;28;19922;-93
2022/06/15 12:18:03;;;;;;;;;;;46.70;13.30;;;;;;4983715;28;19918;-92
2022/06/15 12:20:52;;;;;;;;;;;46.70;13.20;;;;;;4982684;28;19914;-92
2022/06/15 12:23:30;;;;;;;;;;;46.70;13.00;;;;;;4987184;28;19914;-92
2022/06/15 12:26:02;;;;;;;;;;;46.80;13.00;;;;;;4980568;28;20306;-91
2022/06/15 12:28:45;;;;;;;;;;;46.50;12.80;;;;;;4994291;28;20290;-92
2022/06/15 12:31:19;;;;;;;;;;;46.20;12.90;;;;;;5000905;28;19914;-92
2022/06/15 12:33:57;;;;;;;;;;;45.80;13.10;;;;;;4986169;28;19918;-90
2022/06/15 12:36:25;;;;;;;;;;;45.80;13.40;;;;;;4988126;28;19997;-93
2022/06/15 12:39:02;;;;;;;;;;;46.00;13.40;;;;;;4983785;28;19976;-94
2022/06/15 12:44:19;;;;;;;;;;;46.00;13.30;;;;;;4996780;28;19940;-90
2022/06/15 12:46:47;;;;;;;;;;;46.00;13.40;;;;;;4981889;28;19920;-89
2022/06/15 12:49:26;;;;;;;;;;;46.20;13.50;;;;;;4977351;28;20346;-89
2022/06/15 12:51:54;;;;;;;;;;;46.40;13.60;;;;;;4990075;28;20038;-89
2022/06/15 12:54:49;;;;;;;;;;;46.60;13.40;;;;;;4984365;28;19914;-89
2022/06/15 12:57:24;;;;;;;;;;;46.30;13.10;;;;;;4919993;28;20025;-91
2022/06/15 12:59:55;;;;;;;;;;;45.60;13.20;;;;;;4994672;28;20020;-94
2022/06/15 13:02:24;;;;;;;;;;;45.40;13.60;;;;;;4994314;28;20354;-91
2022/06/15 13:05:01;;;;;;;;;;;45.40;13.60;;;;;;4989153;28;19965;-92
2022/06/15 13:07:29;;;;;;;;;;;45.30;13.70;;;;;;4985287;28;19918;-90
2022/06/15 13:10:07;;;;;;;;;;;45.20;13.60;;;;;;4997003;28;19918;-91
2022/06/15 13:12:42;;;;;;;;;;;45.10;13.60;;;;;;4996632;28;19936;-93
2022/06/15 13:15:27;;;;;;;;;;;45.10;13.50;;;;;;4994382;28;20418;-90
2022/06/15 13:18:09;;;;;;;;;;;44.70;13.50;;;;;;4984570;28;19922;-91
2022/06/15 13:20:54;;;;;;;;;;;44.60;13.80;;;;;;4991741;28;19922;-91
2022/06/15 13:23:22;;;;;;;;;;;44.70;13.90;;;;;;4990636;28;19918;-90
2022/06/15 13:25:54;;;;;;;;;;;44.70;13.70;;;;;;4987055;28;19914;-91
2022/06/15 13:28:22;;;;;;;;;;;44.70;13.70;;;;;;4995332;28;20669;-91
2022/06/15 13:30:48;;;;;;;;;;;44.40;13.70;;;;;;5000879;28;19917;-92
2022/06/15 13:33:14;;;;;;;;;;;44.40;13.80;;;;;;4988879;28;20001;-90
2022/06/15 13:35:41;;;;;;;;;;;44.30;13.70;;;;;;4981718;28;19996;-91
2022/06/15 13:38:23;;;;;;;;;;;44.30;13.80;;;;;;4989736;28;19926;-90
2022/06/15 13:40:57;;;;;;;;;;;44.30;13.60;;;;;;4988989;28;19964;-93
2022/06/15 13:43:25;;;;;;;;;;;44.40;13.70;;;;;;4995283;28;20000;-92
2022/06/15 13:45:52;;;;;;;;;;;44.70;13.70;;;;;;4989389;28;19910;-92
2022/06/15 13:48:29;;;;;;;;;;;44.80;13.60;;;;;;4982591;28;20329;-92
2022/06/15 13:50:55;;;;;;;;;;;44.90;13.60;;;;;;4998980;28;19914;-92
2022/06/15 13:53:24;;;;;;;;;;;45.00;13.50;;;;;;5014288;28;19913;-92
2022/06/15 13:56:08;;;;;;;;;;;45.00;13.40;;;;;;4993202;28;19914;-91
2022/06/15 13:58:39;;;;;;;;;;;44.80;13.40;;;;;;4976821;28;19926;-92
2022/06/15 14:01:30;;;;;;;;;;;44.10;13.50;;;;;;4993231;28;20016;-91
2022/06/15 14:04:11;;;;;;;;;;;43.40;13.80;;;;;;5009761;28;20282;-92
2022/06/15 14:06:53;;;;;;;;;;;42.80;14.10;;;;;;5006782;28;20695;-91
2022/06/15 14:09:39;;;;;;;;;;;42.50;14.50;;;;;;5005627;28;19957;-92
2022/06/15 14:12:24;;;;;;;;;;;42.70;14.50;;;;;;4995403;28;19921;-93
2022/06/15 14:15:03;;;;;;;;;;;42.70;14.50;;;;;;4994518;28;19968;-93
2022/06/15 14:17:53;;;;;;;;;;;42.90;14.60;;;;;;4995706;28;19929;-93
2022/06/15 14:20:28;;;;;;;;;;;43.00;14.20;;;;;;4987550;28;19913;-92
2022/06/15 14:22:55;;;;;;;;;;;42.30;14.20;;;;;;4994996;28;19926;-91
2022/06/15 14:25:20;;;;;;;;;;;41.90;14.50;;;;;;4996787;28;19925;-93
2022/06/15 14:27:53;;;;;;;;;;;41.80;14.80;;;;;;5015109;28;19929;-93
2022/06/15 14:30:31;;;;;;;;;;;41.60;14.90;;;;;;5013640;28;20373;-92
2022/06/15 14:33:08;;;;;;;;;;;41.30;15.10;;;;;;4997037;28;19986;-93
2022/06/15 14:35:33;;;;;;;;;;;40.90;15.20;;;;;;4974382;28;19961;-90
2022/06/15 14:38:00;;;;;;;;;;;40.30;15.50;;;;;;4994657;28;19993;-92
2022/06/15 14:40:27;;;;;;;;;;;39.80;15.90;;;;;;4994703;28;19996;-91
2022/06/15 14:42:56;;;;;;;;;;;39.30;16.40;;;;;;4994948;28;20490;-90
2022/06/15 14:45:27;;;;;;;;;;;38.80;16.70;;;;;;4999380;28;19933;-92
2022/06/15 14:47:55;;;;;;;;;;;38.20;17.20;;;;;;5017397;28;19917;-92
2022/06/15 14:50:22;;;;;;;;;;;37.50;17.60;;;;;;5012187;28;19937;-91
2022/06/15 14:52:48;;;;;;;;;;;37.00;18.10;;;;;;4992419;28;20359;-92
2022/06/15 14:55:24;;;;;;;;;;;36.40;18.60;;;;;;4982409;28;19972;-91
2022/06/15 14:57:50;;;;;;;;;;;35.90;19.10;;;;;;4994325;28;19957;-91
2022/06/15 15:00:26;;;;;;;;;;;35.40;19.30;;;;;;4996872;28;20388;-93
2022/06/15 15:02:53;;;;;;;;;;;35.10;19.60;;;;;;4993073;28;19960;-92
2022/06/15 15:05:21;;;;;;;;;;;34.70;20.00;;;;;;4997899;28;19914;-90
2022/06/15 15:10:31;;;;;;;;;;;34.10;20.60;;;;;;5000880;28;20428;-93